sensor_id;sensor_type;location;lat;lon;timestamp;P1;durP1;ratioP1;P2;durP2;ratioP2
20302;SDS011;10310;50.906;4.622;2022-10-16T00:00:09;3.80;;;1.30;;
20302;SDS011;10310;50.906;4.622;2022-10-16T00:02:37;1.27;;;1.17;;
20302;SDS011;10310;50.906;4.622;2022-10-16T00:05:04;3.10;;;1.30;;
20302;SDS011;10310;50.906;4.622;2022-10-16T00:07:33;1.63;;;1.00;;
20302;SDS011;10310;50.906;4.622;2022-10-16T00:10:00;1.97;;;1.23;;
20302;SDS011;10310;50.906;4.622;2022-10-16T00:12:26;1.33;;;1.00;;
20302;SDS011;10310;50.906;4.622;2022-10-16T00:14:53;2.13;;;0.93;;
20302;SDS011;10310;50.906;4.622;2022-10-16T00:17:21;2.77;;;1.33;;
20302;SDS011;10310;50.906;4.622;2022-10-16T00:19:47;2.43;;;1.20;;
20302;SDS011;10310;50.906;4.622;2022-10-16T00:22:14;3.67;;;1.30;;
20302;SDS011;10310;50.906;4.622;2022-10-16T00:24:43;1.30;;;1.20;;
20302;SDS011;10310;50.906;4.622;2022-10-16T00:27:09;1.87;;;1.07;;
20302;SDS011;10310;50.906;4.622;2022-10-16T00:29:37;2.20;;;1.57;;
20302;SDS011;10310;50.906;4.622;2022-10-16T00:32:04;1.63;;;1.40;;
20302;SDS011;10310;50.906;4.622;2022-10-16T00:34:30;1.50;;;1.20;;
20302;SDS011;10310;50.906;4.622;2022-10-16T00:36:57;2.57;;;1.50;;
20302;SDS011;10310;50.906;4.622;2022-10-16T00:39:24;2.07;;;1.30;;
20302;SDS011;10310;50.906;4.622;2022-10-16T00:41:53;1.20;;;1.10;;
20302;SDS011;10310;50.906;4.622;2022-10-16T00:47:13;2.37;;;1.20;;
20302;SDS011;10310;50.906;4.622;2022-10-16T00:49:45;3.43;;;1.40;;
20302;SDS011;10310;50.906;4.622;2022-10-16T00:52:15;1.80;;;1.30;;
20302;SDS011;10310;50.906;4.622;2022-10-16T00:54:42;1.53;;;1.20;;
20302;SDS011;10310;50.906;4.622;2022-10-16T00:57:12;2.80;;;1.30;;
20302;SDS011;10310;50.906;4.622;2022-10-16T00:59:40;3.87;;;1.20;;
20302;SDS011;10310;50.906;4.622;2022-10-16T01:02:09;2.47;;;1.83;;
20302;SDS011;10310;50.906;4.622;2022-10-16T01:04:38;2.93;;;1.30;;
20302;SDS011;10310;50.906;4.622;2022-10-16T01:07:10;2.13;;;1.20;;
20302;SDS011;10310;50.906;4.622;2022-10-16T01:09:47;2.03;;;1.23;;
20302;SDS011;10310;50.906;4.622;2022-10-16T01:12:26;2.80;;;1.30;;
20302;SDS011;10310;50.906;4.622;2022-10-16T01:15:03;2.53;;;1.43;;
20302;SDS011;10310;50.906;4.622;2022-10-16T01:17:37;4.40;;;1.17;;
20302;SDS011;10310;50.906;4.622;2022-10-16T01:20:10;1.73;;;1.33;;
20302;SDS011;10310;50.906;4.622;2022-10-16T01:22:47;1.90;;;1.30;;
20302;SDS011;10310;50.906;4.622;2022-10-16T01:25:24;1.70;;;1.57;;
20302;SDS011;10310;50.906;4.622;2022-10-16T01:28:00;2.27;;;1.60;;
20302;SDS011;10310;50.906;4.622;2022-10-16T01:30:31;1.60;;;1.50;;
20302;SDS011;10310;50.906;4.622;2022-10-16T01:33:00;1.63;;;1.30;;
20302;SDS011;10310;50.906;4.622;2022-10-16T01:35:35;2.17;;;1.40;;
20302;SDS011;10310;50.906;4.622;2022-10-16T01:38:05;2.17;;;1.30;;
20302;SDS011;10310;50.906;4.622;2022-10-16T01:40:37;3.97;;;1.30;;
20302;SDS011;10310;50.906;4.622;2022-10-16T01:43:10;2.77;;;1.30;;
20302;SDS011;10310;50.906;4.622;2022-10-16T01:45:43;2.17;;;1.40;;
20302;SDS011;10310;50.906;4.622;2022-10-16T01:51:04;4.43;;;1.60;;
20302;SDS011;10310;50.906;4.622;2022-10-16T01:53:33;1.37;;;1.20;;
20302;SDS011;10310;50.906;4.622;2022-10-16T01:56:00;2.70;;;1.43;;
20302;SDS011;10310;50.906;4.622;2022-10-16T01:58:31;1.80;;;1.30;;
20302;SDS011;10310;50.906;4.622;2022-10-16T02:01:02;3.33;;;1.80;;
20302;SDS011;10310;50.906;4.622;2022-10-16T02:03:34;2.13;;;1.50;;
20302;SDS011;10310;50.906;4.622;2022-10-16T02:06:03;3.13;;;1.60;;
20302;SDS011;10310;50.906;4.622;2022-10-16T02:08:31;1.73;;;1.53;;
20302;SDS011;10310;50.906;4.622;2022-10-16T02:10:58;4.00;;;1.50;;
20302;SDS011;10310;50.906;4.622;2022-10-16T02:13:28;2.33;;;1.50;;
20302;SDS011;10310;50.906;4.622;2022-10-16T02:15:59;1.70;;;1.50;;
20302;SDS011;10310;50.906;4.622;2022-10-16T02:18:26;3.13;;;1.70;;
20302;SDS011;10310;50.906;4.622;2022-10-16T02:20:55;2.77;;;1.50;;
20302;SDS011;10310;50.906;4.622;2022-10-16T02:23:29;2.83;;;1.77;;
20302;SDS011;10310;50.906;4.622;2022-10-16T02:26:00;2.00;;;1.70;;
20302;SDS011;10310;50.906;4.622;2022-10-16T02:28:31;2.17;;;1.50;;
20302;SDS011;10310;50.906;4.622;2022-10-16T02:31:06;1.97;;;1.70;;
20302;SDS011;10310;50.906;4.622;2022-10-16T02:33:37;1.87;;;1.67;;
20302;SDS011;10310;50.906;4.622;2022-10-16T02:36:06;1.80;;;1.60;;
20302;SDS011;10310;50.906;4.622;2022-10-16T02:38:34;1.77;;;1.43;;
20302;SDS011;10310;50.906;4.622;2022-10-16T02:44:25;3.13;;;1.60;;
20302;SDS011;10310;50.906;4.622;2022-10-16T02:46:53;1.97;;;1.63;;
20302;SDS011;10310;50.906;4.622;2022-10-16T02:49:20;3.40;;;1.60;;
20302;SDS011;10310;50.906;4.622;2022-10-16T02:51:47;2.90;;;1.60;;
20302;SDS011;10310;50.906;4.622;2022-10-16T02:54:14;3.80;;;1.73;;
20302;SDS011;10310;50.906;4.622;2022-10-16T02:56:40;2.43;;;1.83;;
20302;SDS011;10310;50.906;4.622;2022-10-16T02:59:07;3.20;;;2.17;;
20302;SDS011;10310;50.906;4.622;2022-10-16T03:01:35;6.20;;;2.03;;
20302;SDS011;10310;50.906;4.622;2022-10-16T03:04:03;6.67;;;1.90;;
20302;SDS011;10310;50.906;4.622;2022-10-16T03:06:30;3.17;;;1.97;;
20302;SDS011;10310;50.906;4.622;2022-10-16T03:09:00;3.27;;;2.33;;
20302;SDS011;10310;50.906;4.622;2022-10-16T03:11:27;3.40;;;2.77;;
20302;SDS011;10310;50.906;4.622;2022-10-16T03:13:54;4.23;;;3.00;;
20302;SDS011;10310;50.906;4.622;2022-10-16T03:16:21;6.27;;;4.40;;
20302;SDS011;10310;50.906;4.622;2022-10-16T03:18:48;4.77;;;2.70;;
20302;SDS011;10310;50.906;4.622;2022-10-16T03:21:35;3.80;;;3.03;;
20302;SDS011;10310;50.906;4.622;2022-10-16T03:24:02;3.43;;;2.47;;
20302;SDS011;10310;50.906;4.622;2022-10-16T03:26:29;3.83;;;2.33;;
20302;SDS011;10310;50.906;4.622;2022-10-16T03:28:56;3.13;;;2.30;;
20302;SDS011;10310;50.906;4.622;2022-10-16T03:31:23;3.43;;;2.80;;
20302;SDS011;10310;50.906;4.622;2022-10-16T03:33:50;4.67;;;2.77;;
20302;SDS011;10310;50.906;4.622;2022-10-16T03:36:17;5.57;;;2.50;;
20302;SDS011;10310;50.906;4.622;2022-10-16T03:38:45;7.03;;;3.00;;
20302;SDS011;10310;50.906;4.622;2022-10-16T03:41:13;3.60;;;2.93;;
20302;SDS011;10310;50.906;4.622;2022-10-16T03:43:40;4.73;;;2.40;;
20302;SDS011;10310;50.906;4.622;2022-10-16T03:46:06;3.40;;;2.20;;
20302;SDS011;10310;50.906;4.622;2022-10-16T03:48:33;5.67;;;4.10;;
20302;SDS011;10310;50.906;4.622;2022-10-16T03:51:00;11.17;;;5.23;;
20302;SDS011;10310;50.906;4.622;2022-10-16T03:53:27;7.60;;;6.77;;
20302;SDS011;10310;50.906;4.622;2022-10-16T03:55:55;12.80;;;10.43;;
20302;SDS011;10310;50.906;4.622;2022-10-16T03:58:23;7.50;;;6.10;;
20302;SDS011;10310;50.906;4.622;2022-10-16T04:00:50;11.40;;;9.10;;
20302;SDS011;10310;50.906;4.622;2022-10-16T04:06:39;5.20;;;4.70;;
20302;SDS011;10310;50.906;4.622;2022-10-16T04:09:06;3.87;;;2.33;;
20302;SDS011;10310;50.906;4.622;2022-10-16T04:11:34;6.27;;;2.40;;
20302;SDS011;10310;50.906;4.622;2022-10-16T04:14:01;4.43;;;2.50;;
20302;SDS011;10310;50.906;4.622;2022-10-16T04:16:28;3.90;;;2.53;;
20302;SDS011;10310;50.906;4.622;2022-10-16T04:18:55;4.70;;;2.40;;
20302;SDS011;10310;50.906;4.622;2022-10-16T04:21:22;3.20;;;2.17;;
20302;SDS011;10310;50.906;4.622;2022-10-16T04:23:49;2.67;;;2.10;;
20302;SDS011;10310;50.906;4.622;2022-10-16T04:26:17;2.80;;;2.23;;
20302;SDS011;10310;50.906;4.622;2022-10-16T04:28:45;7.17;;;2.30;;
20302;SDS011;10310;50.906;4.622;2022-10-16T04:31:12;4.47;;;2.20;;
20302;SDS011;10310;50.906;4.622;2022-10-16T04:33:41;4.27;;;2.50;;
20302;SDS011;10310;50.906;4.622;2022-10-16T04:36:08;4.43;;;2.60;;
20302;SDS011;10310;50.906;4.622;2022-10-16T04:38:35;6.43;;;2.80;;
20302;SDS011;10310;50.906;4.622;2022-10-16T04:41:04;3.80;;;2.50;;
20302;SDS011;10310;50.906;4.622;2022-10-16T04:43:31;3.40;;;2.33;;
20302;SDS011;10310;50.906;4.622;2022-10-16T04:46:00;4.37;;;2.33;;
20302;SDS011;10310;50.906;4.622;2022-10-16T04:48:29;5.40;;;2.50;;
20302;SDS011;10310;50.906;4.622;2022-10-16T04:50:56;4.83;;;2.40;;
20302;SDS011;10310;50.906;4.622;2022-10-16T04:53:23;3.33;;;2.30;;
20302;SDS011;10310;50.906;4.622;2022-10-16T04:55:50;3.20;;;2.17;;
20302;SDS011;10310;50.906;4.622;2022-10-16T04:58:17;4.00;;;2.77;;
20302;SDS011;10310;50.906;4.622;2022-10-16T05:00:44;5.60;;;2.53;;
20302;SDS011;10310;50.906;4.622;2022-10-16T05:03:13;3.50;;;2.97;;
20302;SDS011;10310;50.906;4.622;2022-10-16T05:05:42;3.83;;;2.47;;
20302;SDS011;10310;50.906;4.622;2022-10-16T05:08:12;3.47;;;2.70;;
20302;SDS011;10310;50.906;4.622;2022-10-16T05:10:40;2.60;;;2.40;;
20302;SDS011;10310;50.906;4.622;2022-10-16T05:13:08;5.17;;;2.77;;
20302;SDS011;10310;50.906;4.622;2022-10-16T05:15:36;4.07;;;2.47;;
20302;SDS011;10310;50.906;4.622;2022-10-16T05:18:04;4.87;;;2.37;;
20302;SDS011;10310;50.906;4.622;2022-10-16T05:20:32;3.10;;;2.63;;
20302;SDS011;10310;50.906;4.622;2022-10-16T05:22:59;7.50;;;2.60;;
20302;SDS011;10310;50.906;4.622;2022-10-16T05:25:26;4.77;;;2.37;;
20302;SDS011;10310;50.906;4.622;2022-10-16T05:27:53;5.03;;;2.83;;
20302;SDS011;10310;50.906;4.622;2022-10-16T05:30:20;3.37;;;2.70;;
20302;SDS011;10310;50.906;4.622;2022-10-16T05:32:48;5.60;;;2.87;;
20302;SDS011;10310;50.906;4.622;2022-10-16T05:38:39;4.97;;;2.60;;
20302;SDS011;10310;50.906;4.622;2022-10-16T05:41:06;3.07;;;2.40;;
20302;SDS011;10310;50.906;4.622;2022-10-16T05:43:33;3.13;;;2.83;;
20302;SDS011;10310;50.906;4.622;2022-10-16T05:46:03;7.33;;;2.93;;
20302;SDS011;10310;50.906;4.622;2022-10-16T05:48:31;5.33;;;2.83;;
20302;SDS011;10310;50.906;4.622;2022-10-16T05:50:59;4.37;;;2.83;;
20302;SDS011;10310;50.906;4.622;2022-10-16T05:53:28;8.70;;;5.00;;
20302;SDS011;10310;50.906;4.622;2022-10-16T05:55:58;7.33;;;3.43;;
20302;SDS011;10310;50.906;4.622;2022-10-16T05:58:27;4.83;;;3.07;;
20302;SDS011;10310;50.906;4.622;2022-10-16T06:00:56;3.63;;;3.27;;
20302;SDS011;10310;50.906;4.622;2022-10-16T06:03:24;6.03;;;3.53;;
20302;SDS011;10310;50.906;4.622;2022-10-16T06:05:52;6.50;;;4.67;;
20302;SDS011;10310;50.906;4.622;2022-10-16T06:08:38;5.73;;;4.00;;
20302;SDS011;10310;50.906;4.622;2022-10-16T06:11:07;4.97;;;2.80;;
20302;SDS011;10310;50.906;4.622;2022-10-16T06:13:37;5.20;;;3.30;;
20302;SDS011;10310;50.906;4.622;2022-10-16T06:16:07;8.20;;;7.10;;
20302;SDS011;10310;50.906;4.622;2022-10-16T06:18:34;9.33;;;6.20;;
20302;SDS011;10310;50.906;4.622;2022-10-16T06:21:06;6.30;;;5.07;;
20302;SDS011;10310;50.906;4.622;2022-10-16T06:23:33;5.63;;;3.00;;
20302;SDS011;10310;50.906;4.622;2022-10-16T06:26:04;3.63;;;2.80;;
20302;SDS011;10310;50.906;4.622;2022-10-16T06:28:33;6.10;;;2.97;;
20302;SDS011;10310;50.906;4.622;2022-10-16T06:31:00;6.10;;;2.93;;
20302;SDS011;10310;50.906;4.622;2022-10-16T06:33:27;8.50;;;3.03;;
20302;SDS011;10310;50.906;4.622;2022-10-16T06:35:59;4.73;;;3.20;;
20302;SDS011;10310;50.906;4.622;2022-10-16T06:38:27;3.90;;;2.77;;
20302;SDS011;10310;50.906;4.622;2022-10-16T06:40:54;3.50;;;2.90;;
20302;SDS011;10310;50.906;4.622;2022-10-16T06:43:23;3.80;;;3.33;;
20302;SDS011;10310;50.906;4.622;2022-10-16T06:45:51;5.93;;;3.00;;
20302;SDS011;10310;50.906;4.622;2022-10-16T06:48:18;7.17;;;2.87;;
20302;SDS011;10310;50.906;4.622;2022-10-16T06:50:54;5.33;;;4.70;;
20302;SDS011;10310;50.906;4.622;2022-10-16T06:53:22;3.97;;;3.60;;
20302;SDS011;10310;50.906;4.622;2022-10-16T06:55:49;4.43;;;3.37;;
20302;SDS011;10310;50.906;4.622;2022-10-16T06:58:15;5.47;;;2.90;;
20302;SDS011;10310;50.906;4.622;2022-10-16T07:00:44;5.77;;;2.47;;
20302;SDS011;10310;50.906;4.622;2022-10-16T07:03:11;6.53;;;2.63;;
20302;SDS011;10310;50.906;4.622;2022-10-16T07:05:38;4.17;;;2.67;;
20302;SDS011;10310;50.906;4.622;2022-10-16T07:08:05;6.30;;;2.70;;
20302;SDS011;10310;50.906;4.622;2022-10-16T07:10:32;4.83;;;2.80;;
20302;SDS011;10310;50.906;4.622;2022-10-16T07:13:00;4.13;;;2.77;;
20302;SDS011;10310;50.906;4.622;2022-10-16T07:15:27;3.83;;;2.70;;
20302;SDS011;10310;50.906;4.622;2022-10-16T07:17:55;4.93;;;2.77;;
20302;SDS011;10310;50.906;4.622;2022-10-16T07:20:22;3.97;;;2.03;;
20302;SDS011;10310;50.906;4.622;2022-10-16T07:22:49;3.47;;;2.43;;
20302;SDS011;10310;50.906;4.622;2022-10-16T07:25:16;4.67;;;2.33;;
20302;SDS011;10310;50.906;4.622;2022-10-16T07:27:43;4.20;;;2.10;;
20302;SDS011;10310;50.906;4.622;2022-10-16T07:30:10;5.83;;;2.50;;
20302;SDS011;10310;50.906;4.622;2022-10-16T07:32:37;4.70;;;2.40;;
20302;SDS011;10310;50.906;4.622;2022-10-16T07:35:06;4.10;;;2.10;;
20302;SDS011;10310;50.906;4.622;2022-10-16T07:37:33;5.77;;;2.93;;
20302;SDS011;10310;50.906;4.622;2022-10-16T07:40:00;3.00;;;2.23;;
20302;SDS011;10310;50.906;4.622;2022-10-16T07:42:27;5.07;;;2.10;;
20302;SDS011;10310;50.906;4.622;2022-10-16T07:44:54;3.40;;;2.80;;
20302;SDS011;10310;50.906;4.622;2022-10-16T07:47:21;6.20;;;2.40;;
20302;SDS011;10310;50.906;4.622;2022-10-16T07:49:48;6.20;;;2.20;;
20302;SDS011;10310;50.906;4.622;2022-10-16T07:52:16;4.53;;;2.10;;
20302;SDS011;10310;50.906;4.622;2022-10-16T07:54:43;3.33;;;2.60;;
20302;SDS011;10310;50.906;4.622;2022-10-16T07:57:09;4.87;;;2.30;;
20302;SDS011;10310;50.906;4.622;2022-10-16T07:59:37;2.20;;;2.00;;
20302;SDS011;10310;50.906;4.622;2022-10-16T08:02:03;3.03;;;1.90;;
20302;SDS011;10310;50.906;4.622;2022-10-16T08:04:30;4.10;;;2.20;;
20302;SDS011;10310;50.906;4.622;2022-10-16T08:06:57;5.10;;;2.13;;
20302;SDS011;10310;50.906;4.622;2022-10-16T08:09:25;3.33;;;2.20;;
20302;SDS011;10310;50.906;4.622;2022-10-16T08:11:52;4.77;;;2.17;;
20302;SDS011;10310;50.906;4.622;2022-10-16T08:14:19;4.17;;;1.80;;
20302;SDS011;10310;50.906;4.622;2022-10-16T08:16:46;6.40;;;1.97;;
20302;SDS011;10310;50.906;4.622;2022-10-16T08:19:13;3.37;;;1.97;;
20302;SDS011;10310;50.906;4.622;2022-10-16T08:21:41;3.07;;;2.00;;
20302;SDS011;10310;50.906;4.622;2022-10-16T08:24:08;2.60;;;1.73;;
20302;SDS011;10310;50.906;4.622;2022-10-16T08:26:36;6.47;;;1.70;;
20302;SDS011;10310;50.906;4.622;2022-10-16T08:29:03;4.40;;;1.60;;
20302;SDS011;10310;50.906;4.622;2022-10-16T08:31:30;5.47;;;1.63;;
20302;SDS011;10310;50.906;4.622;2022-10-16T08:33:57;5.47;;;1.67;;
20302;SDS011;10310;50.906;4.622;2022-10-16T08:36:23;5.80;;;1.70;;
20302;SDS011;10310;50.906;4.622;2022-10-16T08:38:50;4.97;;;1.70;;
20302;SDS011;10310;50.906;4.622;2022-10-16T08:41:53;4.93;;;1.70;;
20302;SDS011;10310;50.906;4.622;2022-10-16T08:44:40;5.43;;;1.60;;
20302;SDS011;10310;50.906;4.622;2022-10-16T08:47:26;3.60;;;1.70;;
20302;SDS011;10310;50.906;4.622;2022-10-16T08:50:02;2.37;;;1.30;;
20302;SDS011;10310;50.906;4.622;2022-10-16T08:52:38;3.57;;;1.57;;
20302;SDS011;10310;50.906;4.622;2022-10-16T08:58:28;3.87;;;1.63;;
20302;SDS011;10310;50.906;4.622;2022-10-16T09:00:56;4.77;;;1.73;;
20302;SDS011;10310;50.906;4.622;2022-10-16T09:06:35;6.10;;;1.63;;
20302;SDS011;10310;50.906;4.622;2022-10-16T09:09:17;4.30;;;1.73;;
20302;SDS011;10310;50.906;4.622;2022-10-16T09:12:11;3.93;;;1.70;;
20302;SDS011;10310;50.906;4.622;2022-10-16T09:14:47;3.83;;;1.40;;
20302;SDS011;10310;50.906;4.622;2022-10-16T09:17:27;3.23;;;1.33;;
20302;SDS011;10310;50.906;4.622;2022-10-16T09:20:04;6.27;;;1.73;;
20302;SDS011;10310;50.906;4.622;2022-10-16T09:22:44;5.27;;;1.40;;
20302;SDS011;10310;50.906;4.622;2022-10-16T09:25:11;4.20;;;1.20;;
20302;SDS011;10310;50.906;4.622;2022-10-16T09:27:40;2.87;;;1.60;;
20302;SDS011;10310;50.906;4.622;2022-10-16T09:30:13;7.17;;;2.27;;
20302;SDS011;10310;50.906;4.622;2022-10-16T09:32:41;6.23;;;1.60;;
20302;SDS011;10310;50.906;4.622;2022-10-16T09:35:14;5.20;;;1.70;;
20302;SDS011;10310;50.906;4.622;2022-10-16T09:37:44;5.80;;;2.23;;
20302;SDS011;10310;50.906;4.622;2022-10-16T09:40:13;6.00;;;1.40;;
20302;SDS011;10310;50.906;4.622;2022-10-16T09:42:50;5.60;;;1.40;;
20302;SDS011;10310;50.906;4.622;2022-10-16T09:45:25;3.80;;;1.53;;
20302;SDS011;10310;50.906;4.622;2022-10-16T09:47:52;6.27;;;1.50;;
20302;SDS011;10310;50.906;4.622;2022-10-16T09:50:20;4.40;;;1.50;;
20302;SDS011;10310;50.906;4.622;2022-10-16T09:52:51;4.50;;;1.93;;
20302;SDS011;10310;50.906;4.622;2022-10-16T09:55:29;4.30;;;1.87;;
20302;SDS011;10310;50.906;4.622;2022-10-16T09:57:55;5.73;;;1.77;;
20302;SDS011;10310;50.906;4.622;2022-10-16T10:00:23;6.40;;;1.40;;
20302;SDS011;10310;50.906;4.622;2022-10-16T10:02:52;4.67;;;1.63;;
20302;SDS011;10310;50.906;4.622;2022-10-16T10:05:21;7.27;;;1.57;;
20302;SDS011;10310;50.906;4.622;2022-10-16T10:07:54;4.03;;;1.50;;
20302;SDS011;10310;50.906;4.622;2022-10-16T10:10:24;3.53;;;1.33;;
20302;SDS011;10310;50.906;4.622;2022-10-16T10:12:52;4.53;;;1.40;;
20302;SDS011;10310;50.906;4.622;2022-10-16T10:15:20;4.90;;;1.70;;
20302;SDS011;10310;50.906;4.622;2022-10-16T10:17:51;5.77;;;1.43;;
20302;SDS011;10310;50.906;4.622;2022-10-16T10:20:23;5.50;;;1.77;;
20302;SDS011;10310;50.906;4.622;2022-10-16T10:22:53;4.30;;;1.50;;
20302;SDS011;10310;50.906;4.622;2022-10-16T10:28:17;2.87;;;1.30;;
20302;SDS011;10310;50.906;4.622;2022-10-16T10:30:54;5.47;;;1.50;;
20302;SDS011;10310;50.906;4.622;2022-10-16T10:33:28;2.90;;;1.17;;
20302;SDS011;10310;50.906;4.622;2022-10-16T10:36:10;3.37;;;1.30;;
20302;SDS011;10310;50.906;4.622;2022-10-16T10:38:46;5.47;;;1.70;;
20302;SDS011;10310;50.906;4.622;2022-10-16T10:41:27;5.37;;;1.17;;
20302;SDS011;10310;50.906;4.622;2022-10-16T10:44:08;4.70;;;1.60;;
20302;SDS011;10310;50.906;4.622;2022-10-16T10:46:47;5.30;;;1.47;;
20302;SDS011;10310;50.906;4.622;2022-10-16T10:49:22;5.87;;;1.50;;
20302;SDS011;10310;50.906;4.622;2022-10-16T10:52:02;4.47;;;1.60;;
20302;SDS011;10310;50.906;4.622;2022-10-16T10:54:41;5.63;;;1.43;;
20302;SDS011;10310;50.906;4.622;2022-10-16T10:57:16;3.57;;;1.70;;
20302;SDS011;10310;50.906;4.622;2022-10-16T10:59:57;4.90;;;2.40;;
20302;SDS011;10310;50.906;4.622;2022-10-16T11:02:35;3.83;;;1.90;;
20302;SDS011;10310;50.906;4.622;2022-10-16T11:05:18;2.70;;;1.40;;
20302;SDS011;10310;50.906;4.622;2022-10-16T11:07:57;2.73;;;1.20;;
20302;SDS011;10310;50.906;4.622;2022-10-16T11:10:27;4.00;;;1.30;;
20302;SDS011;10310;50.906;4.622;2022-10-16T11:13:02;2.30;;;1.33;;
20302;SDS011;10310;50.906;4.622;2022-10-16T11:15:37;4.13;;;1.57;;
20302;SDS011;10310;50.906;4.622;2022-10-16T11:18:27;5.10;;;1.13;;
20302;SDS011;10310;50.906;4.622;2022-10-16T11:21:03;4.80;;;1.20;;
20302;SDS011;10310;50.906;4.622;2022-10-16T11:23:35;3.20;;;1.30;;
20302;SDS011;10310;50.906;4.622;2022-10-16T11:26:11;3.40;;;1.20;;
20302;SDS011;10310;50.906;4.622;2022-10-16T11:28:42;4.47;;;1.33;;
20302;SDS011;10310;50.906;4.622;2022-10-16T11:31:13;2.23;;;1.20;;
20302;SDS011;10310;50.906;4.622;2022-10-16T11:33:46;2.93;;;1.37;;
20302;SDS011;10310;50.906;4.622;2022-10-16T11:36:23;3.23;;;1.47;;
20302;SDS011;10310;50.906;4.622;2022-10-16T11:38:58;3.57;;;1.20;;
20302;SDS011;10310;50.906;4.622;2022-10-16T11:41:32;6.17;;;1.67;;
20302;SDS011;10310;50.906;4.622;2022-10-16T11:44:16;2.73;;;1.00;;
20302;SDS011;10310;50.906;4.622;2022-10-16T11:46:57;3.57;;;1.20;;
20302;SDS011;10310;50.906;4.622;2022-10-16T11:49:27;3.47;;;0.93;;
20302;SDS011;10310;50.906;4.622;2022-10-16T11:52:01;5.87;;;1.60;;
20302;SDS011;10310;50.906;4.622;2022-10-16T11:54:35;3.67;;;1.43;;
20302;SDS011;10310;50.906;4.622;2022-10-16T11:57:08;3.07;;;1.40;;
20302;SDS011;10310;50.906;4.622;2022-10-16T11:59:41;2.13;;;1.00;;
20302;SDS011;10310;50.906;4.622;2022-10-16T12:02:25;5.00;;;0.90;;
20302;SDS011;10310;50.906;4.622;2022-10-16T12:05:11;3.57;;;1.23;;
20302;SDS011;10310;50.906;4.622;2022-10-16T12:07:49;2.77;;;1.20;;
20302;SDS011;10310;50.906;4.622;2022-10-16T12:10:23;3.83;;;1.30;;
20302;SDS011;10310;50.906;4.622;2022-10-16T12:12:52;2.67;;;1.20;;
20302;SDS011;10310;50.906;4.622;2022-10-16T12:15:23;3.70;;;1.10;;
20302;SDS011;10310;50.906;4.622;2022-10-16T12:17:51;2.97;;;1.10;;
20302;SDS011;10310;50.906;4.622;2022-10-16T12:20:23;3.13;;;1.37;;
20302;SDS011;10310;50.906;4.622;2022-10-16T12:22:54;2.87;;;1.37;;
20302;SDS011;10310;50.906;4.622;2022-10-16T12:25:24;2.50;;;1.07;;
20302;SDS011;10310;50.906;4.622;2022-10-16T12:28:00;4.73;;;1.20;;
20302;SDS011;10310;50.906;4.622;2022-10-16T12:30:30;2.47;;;1.10;;
20302;SDS011;10310;50.906;4.622;2022-10-16T12:33:00;3.03;;;1.40;;
20302;SDS011;10310;50.906;4.622;2022-10-16T12:35:30;2.73;;;1.30;;
20302;SDS011;10310;50.906;4.622;2022-10-16T12:38:08;3.10;;;1.23;;
20302;SDS011;10310;50.906;4.622;2022-10-16T12:40:42;3.53;;;1.30;;
20302;SDS011;10310;50.906;4.622;2022-10-16T12:43:11;2.27;;;1.53;;
20302;SDS011;10310;50.906;4.622;2022-10-16T12:45:58;2.77;;;1.13;;
20302;SDS011;10310;50.906;4.622;2022-10-16T12:48:26;6.57;;;1.43;;
20302;SDS011;10310;50.906;4.622;2022-10-16T12:50:53;2.07;;;1.20;;
20302;SDS011;10310;50.906;4.622;2022-10-16T12:53:22;2.47;;;1.10;;
20302;SDS011;10310;50.906;4.622;2022-10-16T12:55:53;2.13;;;1.03;;
20302;SDS011;10310;50.906;4.622;2022-10-16T12:58:35;3.47;;;1.37;;
20302;SDS011;10310;50.906;4.622;2022-10-16T13:01:12;5.67;;;1.70;;
20302;SDS011;10310;50.906;4.622;2022-10-16T13:03:55;4.67;;;1.13;;
20302;SDS011;10310;50.906;4.622;2022-10-16T13:06:38;2.60;;;1.10;;
20302;SDS011;10310;50.906;4.622;2022-10-16T13:09:19;3.20;;;1.33;;
20302;SDS011;10310;50.906;4.622;2022-10-16T13:12:02;3.80;;;1.33;;
20302;SDS011;10310;50.906;4.622;2022-10-16T13:14:57;3.37;;;1.20;;
20302;SDS011;10310;50.906;4.622;2022-10-16T13:17:43;4.33;;;1.17;;
20302;SDS011;10310;50.906;4.622;2022-10-16T13:20:18;2.47;;;1.30;;
20302;SDS011;10310;50.906;4.622;2022-10-16T13:22:54;3.53;;;1.67;;
20302;SDS011;10310;50.906;4.622;2022-10-16T13:25:33;1.83;;;1.20;;
20302;SDS011;10310;50.906;4.622;2022-10-16T13:28:10;3.40;;;1.40;;
20302;SDS011;10310;50.906;4.622;2022-10-16T13:30:38;3.37;;;1.30;;
20302;SDS011;10310;50.906;4.622;2022-10-16T13:33:12;2.33;;;1.10;;
20302;SDS011;10310;50.906;4.622;2022-10-16T13:35:48;3.27;;;1.27;;
20302;SDS011;10310;50.906;4.622;2022-10-16T13:38:17;2.70;;;1.30;;
20302;SDS011;10310;50.906;4.622;2022-10-16T13:40:51;4.30;;;1.50;;
20302;SDS011;10310;50.906;4.622;2022-10-16T13:43:21;2.20;;;1.20;;
20302;SDS011;10310;50.906;4.622;2022-10-16T13:45:55;2.47;;;1.20;;
20302;SDS011;10310;50.906;4.622;2022-10-16T13:48:22;4.83;;;1.20;;
20302;SDS011;10310;50.906;4.622;2022-10-16T13:53:33;1.73;;;0.90;;
20302;SDS011;10310;50.906;4.622;2022-10-16T13:56:04;2.67;;;1.40;;
20302;SDS011;10310;50.906;4.622;2022-10-16T13:58:32;3.77;;;1.20;;
20302;SDS011;10310;50.906;4.622;2022-10-16T14:01:00;2.33;;;1.20;;
20302;SDS011;10310;50.906;4.622;2022-10-16T14:03:30;3.67;;;1.27;;
20302;SDS011;10310;50.906;4.622;2022-10-16T14:05:59;3.50;;;1.23;;
20302;SDS011;10310;50.906;4.622;2022-10-16T14:08:28;4.50;;;1.60;;
20302;SDS011;10310;50.906;4.622;2022-10-16T14:10:57;3.20;;;1.50;;
20302;SDS011;10310;50.906;4.622;2022-10-16T14:13:31;4.73;;;1.63;;
20302;SDS011;10310;50.906;4.622;2022-10-16T14:16:03;3.53;;;1.63;;
20302;SDS011;10310;50.906;4.622;2022-10-16T14:18:33;2.00;;;1.30;;
20302;SDS011;10310;50.906;4.622;2022-10-16T14:21:05;4.03;;;1.70;;
20302;SDS011;10310;50.906;4.622;2022-10-16T14:23:34;3.27;;;1.50;;
20302;SDS011;10310;50.906;4.622;2022-10-16T14:26:13;4.00;;;1.40;;
20302;SDS011;10310;50.906;4.622;2022-10-16T14:28:44;5.43;;;1.50;;
20302;SDS011;10310;50.906;4.622;2022-10-16T14:31:25;4.60;;;1.50;;
20302;SDS011;10310;50.906;4.622;2022-10-16T14:33:54;2.63;;;1.50;;
20302;SDS011;10310;50.906;4.622;2022-10-16T14:36:21;2.43;;;1.37;;
20302;SDS011;10310;50.906;4.622;2022-10-16T14:38:54;3.57;;;1.50;;
20302;SDS011;10310;50.906;4.622;2022-10-16T14:41:28;2.53;;;1.33;;
20302;SDS011;10310;50.906;4.622;2022-10-16T14:43:57;3.67;;;1.60;;
20302;SDS011;10310;50.906;4.622;2022-10-16T14:46:29;3.03;;;1.70;;
20302;SDS011;10310;50.906;4.622;2022-10-16T14:49:00;3.70;;;1.50;;
20302;SDS011;10310;50.906;4.622;2022-10-16T14:51:31;3.33;;;1.53;;
20302;SDS011;10310;50.906;4.622;2022-10-16T14:53:57;3.50;;;1.40;;
20302;SDS011;10310;50.906;4.622;2022-10-16T14:56:25;7.10;;;1.73;;
20302;SDS011;10310;50.906;4.622;2022-10-16T14:58:56;1.83;;;1.30;;
20302;SDS011;10310;50.906;4.622;2022-10-16T15:01:24;1.50;;;1.30;;
20302;SDS011;10310;50.906;4.622;2022-10-16T15:03:51;3.50;;;1.40;;
20302;SDS011;10310;50.906;4.622;2022-10-16T15:06:19;3.60;;;1.20;;
20302;SDS011;10310;50.906;4.622;2022-10-16T15:08:47;3.67;;;1.33;;
20302;SDS011;10310;50.906;4.622;2022-10-16T15:11:15;1.50;;;1.20;;
20302;SDS011;10310;50.906;4.622;2022-10-16T15:13:43;2.53;;;1.40;;
20302;SDS011;10310;50.906;4.622;2022-10-16T15:16:12;3.13;;;1.50;;
20302;SDS011;10310;50.906;4.622;2022-10-16T15:18:40;4.60;;;1.30;;
20302;SDS011;10310;50.906;4.622;2022-10-16T15:21:08;2.90;;;1.50;;
20302;SDS011;10310;50.906;4.622;2022-10-16T15:23:42;4.67;;;1.30;;
20302;SDS011;10310;50.906;4.622;2022-10-16T15:26:09;2.33;;;1.30;;
20302;SDS011;10310;50.906;4.622;2022-10-16T15:28:36;2.80;;;1.60;;
20302;SDS011;10310;50.906;4.622;2022-10-16T15:31:03;2.23;;;1.30;;
20302;SDS011;10310;50.906;4.622;2022-10-16T15:33:32;3.87;;;1.53;;
20302;SDS011;10310;50.906;4.622;2022-10-16T15:36:00;2.20;;;1.17;;